sensor_id;sensor_type;location;lat;lon;timestamp;pressure;altitude;pressure_sealevel;temperature;humidity
49423;BME280;36998;51.974;20.150;2022-12-07T00:00:02;99426.03;;;4.58;72.46
49423;BME280;36998;51.974;20.150;2022-12-07T00:02:30;99416.59;;;4.54;72.24
49423;BME280;36998;51.974;20.150;2022-12-07T00:04:56;99412.25;;;4.53;72.55
49423;BME280;36998;51.974;20.150;2022-12-07T00:07:21;99414.22;;;4.51;72.63
49423;BME280;36998;51.974;20.150;2022-12-07T00:09:47;99409.56;;;4.53;72.75
49423;BME280;36998;51.974;20.150;2022-12-07T00:12:12;99415.22;;;4.50;72.56
49423;BME280;36998;51.974;20.150;2022-12-07T00:14:38;99409.31;;;4.46;72.33
49423;BME280;36998;51.974;20.150;2022-12-07T00:17:03;99405.94;;;4.44;72.55
49423;BME280;36998;51.974;20.150;2022-12-07T00:19:29;99405.25;;;4.42;72.74
49423;BME280;36998;51.974;20.150;2022-12-07T00:21:54;99404.25;;;4.43;72.35
49423;BME280;36998;51.974;20.150;2022-12-07T00:24:20;99402.72;;;4.40;72.65
49423;BME280;36998;51.974;20.150;2022-12-07T00:26:46;99414.41;;;4.39;72.55
49423;BME280;36998;51.974;20.150;2022-12-07T00:29:17;99403.84;;;4.38;72.81
49423;BME280;36998;51.974;20.150;2022-12-07T00:31:43;99398.50;;;4.38;72.72
49423;BME280;36998;51.974;20.150;2022-12-07T00:34:15;99401.88;;;4.40;72.87
49423;BME280;36998;51.974;20.150;2022-12-07T00:36:41;99416.91;;;4.41;72.88
49423;BME280;36998;51.974;20.150;2022-12-07T00:39:06;99419.03;;;4.37;73.00
49423;BME280;36998;51.974;20.150;2022-12-07T00:41:32;99420.75;;;4.38;72.96
49423;BME280;36998;51.974;20.150;2022-12-07T00:43:58;99416.09;;;4.40;72.86
49423;BME280;36998;51.974;20.150;2022-12-07T00:46:24;99412.00;;;4.46;72.98
49423;BME280;36998;51.974;20.150;2022-12-07T00:48:51;99406.47;;;4.47;72.93
49423;BME280;36998;51.974;20.150;2022-12-07T00:51:19;99422.94;;;4.53;72.58
49423;BME280;36998;51.974;20.150;2022-12-07T00:53:45;99415.38;;;4.48;72.95
49423;BME280;36998;51.974;20.150;2022-12-07T00:56:14;99415.78;;;4.43;72.58
49423;BME280;36998;51.974;20.150;2022-12-07T00:58:40;99419.19;;;4.45;72.59
49423;BME280;36998;51.974;20.150;2022-12-07T01:01:07;99409.75;;;4.41;72.54
49423;BME280;36998;51.974;20.150;2022-12-07T01:03:34;99401.44;;;4.44;72.47
49423;BME280;36998;51.974;20.150;2022-12-07T01:06:00;99397.91;;;4.44;72.48
49423;BME280;36998;51.974;20.150;2022-12-07T01:08:26;99416.91;;;4.41;72.49
49423;BME280;36998;51.974;20.150;2022-12-07T01:11:05;99408.06;;;4.40;72.52
49423;BME280;36998;51.974;20.150;2022-12-07T01:13:31;99413.69;;;4.37;72.57
49423;BME280;36998;51.974;20.150;2022-12-07T01:15:59;99411.75;;;4.30;72.56
49423;BME280;36998;51.974;20.150;2022-12-07T01:18:27;99403.59;;;4.21;72.77
49423;BME280;36998;51.974;20.150;2022-12-07T01:21:01;99405.59;;;4.19;72.69
49423;BME280;36998;51.974;20.150;2022-12-07T01:23:27;99406.16;;;4.13;72.94
49423;BME280;36998;51.974;20.150;2022-12-07T01:26:01;99412.06;;;4.17;72.66
49423;BME280;36998;51.974;20.150;2022-12-07T01:28:27;99396.88;;;4.08;72.67
49423;BME280;36998;51.974;20.150;2022-12-07T01:31:04;99402.09;;;4.09;73.02
49423;BME280;36998;51.974;20.150;2022-12-07T01:33:32;99403.22;;;4.07;72.78
49423;BME280;36998;51.974;20.150;2022-12-07T01:38:32;99399.28;;;4.11;73.14
49423;BME280;36998;51.974;20.150;2022-12-07T01:40:58;99388.28;;;4.14;72.67
49423;BME280;36998;51.974;20.150;2022-12-07T01:43:26;99389.88;;;4.07;72.94
49423;BME280;36998;51.974;20.150;2022-12-07T01:45:53;99394.22;;;4.08;72.63
49423;BME280;36998;51.974;20.150;2022-12-07T01:48:22;99386.63;;;4.03;72.83
49423;BME280;36998;51.974;20.150;2022-12-07T01:50:51;99398.28;;;4.02;73.01
49423;BME280;36998;51.974;20.150;2022-12-07T01:53:18;99387.06;;;3.98;73.09
49423;BME280;36998;51.974;20.150;2022-12-07T01:55:46;99380.31;;;3.94;73.04
49423;BME280;36998;51.974;20.150;2022-12-07T01:58:13;99381.31;;;3.93;73.08
49423;BME280;36998;51.974;20.150;2022-12-07T02:00:40;99373.72;;;3.89;73.01
49423;BME280;36998;51.974;20.150;2022-12-07T02:03:11;99373.28;;;3.93;73.09
49423;BME280;36998;51.974;20.150;2022-12-07T02:05:40;99376.66;;;3.95;73.19
49423;BME280;36998;51.974;20.150;2022-12-07T02:08:07;99364.00;;;3.97;72.85
49423;BME280;36998;51.974;20.150;2022-12-07T02:10:33;99365.09;;;4.05;73.03
49423;BME280;36998;51.974;20.150;2022-12-07T02:13:04;99357.53;;;4.00;72.72
49423;BME280;36998;51.974;20.150;2022-12-07T02:18:45;99358.09;;;4.04;72.80
49423;BME280;36998;51.974;20.150;2022-12-07T02:21:20;99358.66;;;3.97;72.88
49423;BME280;36998;51.974;20.150;2022-12-07T02:29:28;99353.03;;;3.91;73.30
49423;BME280;36998;51.974;20.150;2022-12-07T02:32:07;99354.72;;;3.92;73.11
49423;BME280;36998;51.974;20.150;2022-12-07T02:34:44;99354.72;;;3.92;73.07
49423;BME280;36998;51.974;20.150;2022-12-07T02:40:21;99352.22;;;3.90;73.19
49423;BME280;36998;51.974;20.150;2022-12-07T02:42:55;99359.09;;;3.93;73.31
49423;BME280;36998;51.974;20.150;2022-12-07T02:45:25;99346.88;;;3.90;73.05
49423;BME280;36998;51.974;20.150;2022-12-07T02:47:55;99345.19;;;3.89;73.02
49423;BME280;36998;51.974;20.150;2022-12-07T02:50:22;99349.09;;;3.95;72.97
49423;BME280;36998;51.974;20.150;2022-12-07T02:52:47;99343.91;;;3.93;73.00
49423;BME280;36998;51.974;20.150;2022-12-07T02:55:15;99336.31;;;3.89;73.22
49423;BME280;36998;51.974;20.150;2022-12-07T02:57:54;99332.66;;;3.90;73.24
49423;BME280;36998;51.974;20.150;2022-12-07T03:00:22;99329.28;;;3.88;73.16
49423;BME280;36998;51.974;20.150;2022-12-07T03:02:55;99334.63;;;3.88;72.97
49423;BME280;36998;51.974;20.150;2022-12-07T03:05:54;99335.06;;;3.93;73.29
49423;BME280;36998;51.974;20.150;2022-12-07T03:10:59;99334.22;;;3.92;73.28
49423;BME280;36998;51.974;20.150;2022-12-07T03:13:48;99341.91;;;3.95;73.11
49423;BME280;36998;51.974;20.150;2022-12-07T03:16:19;99332.22;;;3.94;73.39
49423;BME280;36998;51.974;20.150;2022-12-07T03:18:56;99328.00;;;3.92;73.28
49423;BME280;36998;51.974;20.150;2022-12-07T03:21:28;99336.47;;;3.87;73.28
49423;BME280;36998;51.974;20.150;2022-12-07T03:23:58;99326.78;;;3.86;73.51
49423;BME280;36998;51.974;20.150;2022-12-07T03:26:32;99329.44;;;3.86;73.31
49423;BME280;36998;51.974;20.150;2022-12-07T03:29:07;99326.63;;;3.88;73.13
49423;BME280;36998;51.974;20.150;2022-12-07T03:31:40;99331.97;;;3.88;73.62
49423;BME280;36998;51.974;20.150;2022-12-07T03:34:14;99321.28;;;3.88;73.21
49423;BME280;36998;51.974;20.150;2022-12-07T03:37:00;99324.38;;;3.93;73.33
49423;BME280;36998;51.974;20.150;2022-12-07T03:39:46;99317.31;;;3.92;73.24
49423;BME280;36998;51.974;20.150;2022-12-07T03:42:15;99316.78;;;3.88;73.25
49423;BME280;36998;51.974;20.150;2022-12-07T03:44:41;99320.44;;;3.87;73.38
49423;BME280;36998;51.974;20.150;2022-12-07T03:47:30;99317.31;;;3.92;73.51
49423;BME280;36998;51.974;20.150;2022-12-07T03:50:03;99318.19;;;3.92;73.17
49423;BME280;36998;51.974;20.150;2022-12-07T03:52:37;99315.91;;;3.97;73.44
49423;BME280;36998;51.974;20.150;2022-12-07T03:55:17;99308.91;;;3.96;73.02
49423;BME280;36998;51.974;20.150;2022-12-07T03:57:47;99309.84;;;4.05;73.03
49423;BME280;36998;51.974;20.150;2022-12-07T04:00:14;99307.03;;;4.07;73.10
49423;BME280;36998;51.974;20.150;2022-12-07T04:02:40;99307.16;;;4.05;73.06
49423;BME280;36998;51.974;20.150;2022-12-07T04:05:07;99306.47;;;4.03;72.95
49423;BME280;36998;51.974;20.150;2022-12-07T04:07:33;99302.69;;;4.06;72.84
49423;BME280;36998;51.974;20.150;2022-12-07T04:09:58;99308.31;;;4.03;72.80
49423;BME280;36998;51.974;20.150;2022-12-07T04:12:24;99300.59;;;3.99;72.90
49423;BME280;36998;51.974;20.150;2022-12-07T04:14:49;99307.78;;;3.99;72.91
49423;BME280;36998;51.974;20.150;2022-12-07T04:17:15;99306.06;;;3.98;72.75
49423;BME280;36998;51.974;20.150;2022-12-07T04:19:40;99303.56;;;3.96;72.70
49423;BME280;36998;51.974;20.150;2022-12-07T04:22:06;99302.56;;;3.97;72.81
49423;BME280;36998;51.974;20.150;2022-12-07T04:24:33;99300.88;;;3.96;72.67
49423;BME280;36998;51.974;20.150;2022-12-07T04:26:59;99305.50;;;3.94;72.57
49423;BME280;36998;51.974;20.150;2022-12-07T04:29:25;99296.22;;;3.98;72.71
49423;BME280;36998;51.974;20.150;2022-12-07T04:31:51;99298.22;;;3.96;72.67
49423;BME280;36998;51.974;20.150;2022-12-07T04:34:17;99297.38;;;3.96;72.57
49423;BME280;36998;51.974;20.150;2022-12-07T04:36:43;99297.38;;;3.96;72.73
49423;BME280;36998;51.974;20.150;2022-12-07T04:39:24;99299.59;;;4.01;72.83
49423;BME280;36998;51.974;20.150;2022-12-07T04:41:50;99301.25;;;4.02;72.63
49423;BME280;36998;51.974;20.150;2022-12-07T04:44:16;99293.00;;;3.95;72.36
49423;BME280;36998;51.974;20.150;2022-12-07T04:46:43;99283.31;;;3.94;72.88
49423;BME280;36998;51.974;20.150;2022-12-07T04:49:09;99287.66;;;3.95;72.58
49423;BME280;36998;51.974;20.150;2022-12-07T04:51:34;99289.22;;;3.88;72.91
49423;BME280;36998;51.974;20.150;2022-12-07T04:54:00;99288.22;;;3.89;72.86
49423;BME280;36998;51.974;20.150;2022-12-07T04:56:26;99284.72;;;3.88;72.45
49423;BME280;36998;51.974;20.150;2022-12-07T04:58:53;99287.38;;;3.88;72.66
49423;BME280;36998;51.974;20.150;2022-12-07T05:01:20;99281.63;;;3.93;72.54
49423;BME280;36998;51.974;20.150;2022-12-07T05:03:47;99272.31;;;3.97;72.59
49423;BME280;36998;51.974;20.150;2022-12-07T05:06:12;99269.78;;;3.95;72.19
49423;BME280;36998;51.974;20.150;2022-12-07T05:08:38;99270.69;;;3.86;72.29
49423;BME280;36998;51.974;20.150;2022-12-07T05:11:05;99274.31;;;3.85;72.63
49423;BME280;36998;51.974;20.150;2022-12-07T05:13:31;99271.81;;;3.84;72.27
49423;BME280;36998;51.974;20.150;2022-12-07T05:15:57;99270.41;;;3.80;72.23
49423;BME280;36998;51.974;20.150;2022-12-07T05:18:23;99268.44;;;3.82;72.22
49423;BME280;36998;51.974;20.150;2022-12-07T05:20:49;99268.59;;;3.80;72.20
49423;BME280;36998;51.974;20.150;2022-12-07T05:23:16;99276.06;;;3.77;72.63
49423;BME280;36998;51.974;20.150;2022-12-07T05:25:44;99278.56;;;3.78;72.80
49423;BME280;36998;51.974;20.150;2022-12-07T05:28:10;99267.50;;;3.73;72.49
49423;BME280;36998;51.974;20.150;2022-12-07T05:30:37;99278.59;;;3.68;72.53
49423;BME280;36998;51.974;20.150;2022-12-07T05:33:03;99265.38;;;3.67;72.56
49423;BME280;36998;51.974;20.150;2022-12-07T05:35:29;99275.06;;;3.68;72.25
49423;BME280;36998;51.974;20.150;2022-12-07T05:37:55;99268.91;;;3.67;72.17
49423;BME280;36998;51.974;20.150;2022-12-07T05:40:21;99269.03;;;3.66;72.35
49423;BME280;36998;51.974;20.150;2022-12-07T05:42:46;99264.69;;;3.65;72.25
49423;BME280;36998;51.974;20.150;2022-12-07T05:45:12;99272.69;;;3.65;72.60
49423;BME280;36998;51.974;20.150;2022-12-07T05:47:38;99270.03;;;3.65;72.55
49423;BME280;36998;51.974;20.150;2022-12-07T05:50:05;99274.53;;;3.64;72.79
49423;BME280;36998;51.974;20.150;2022-12-07T05:52:31;99267.91;;;3.68;72.92
49423;BME280;36998;51.974;20.150;2022-12-07T05:54:56;99272.13;;;3.71;72.47
49423;BME280;36998;51.974;20.150;2022-12-07T05:57:22;99275.50;;;3.73;72.53
49423;BME280;36998;51.974;20.150;2022-12-07T05:59:47;99273.66;;;3.73;72.44
49423;BME280;36998;51.974;20.150;2022-12-07T06:02:14;99274.91;;;3.69;72.53
49423;BME280;36998;51.974;20.150;2022-12-07T06:04:43;99271.41;;;3.69;73.13
49423;BME280;36998;51.974;20.150;2022-12-07T06:07:09;99277.75;;;3.68;72.75
49423;BME280;36998;51.974;20.150;2022-12-07T06:09:35;99278.31;;;3.71;72.85
49423;BME280;36998;51.974;20.150;2022-12-07T06:12:02;99273.94;;;3.70;73.11
49423;BME280;36998;51.974;20.150;2022-12-07T06:14:46;99268.47;;;3.72;73.22
49423;BME280;36998;51.974;20.150;2022-12-07T06:17:12;99274.34;;;3.75;73.22
49423;BME280;36998;51.974;20.150;2022-12-07T06:19:38;99277.72;;;3.78;73.35
49423;BME280;36998;51.974;20.150;2022-12-07T06:22:04;99268.72;;;3.79;73.14
49423;BME280;36998;51.974;20.150;2022-12-07T06:24:31;99271.25;;;3.80;73.37
49423;BME280;36998;51.974;20.150;2022-12-07T06:26:57;99269.44;;;3.81;73.38
49423;BME280;36998;51.974;20.150;2022-12-07T06:29:23;99275.47;;;3.83;73.40
49423;BME280;36998;51.974;20.150;2022-12-07T06:31:48;99260.84;;;3.87;73.03
49423;BME280;36998;51.974;20.150;2022-12-07T06:34:19;99281.38;;;3.86;73.43
49423;BME280;36998;51.974;20.150;2022-12-07T06:36:46;99270.25;;;3.81;73.18
49423;BME280;36998;51.974;20.150;2022-12-07T06:39:19;99286.28;;;3.81;73.47
49423;BME280;36998;51.974;20.150;2022-12-07T06:41:45;99286.72;;;3.77;73.34
49423;BME280;36998;51.974;20.150;2022-12-07T06:44:11;99281.78;;;3.82;73.69
49423;BME280;36998;51.974;20.150;2022-12-07T06:46:37;99278.44;;;3.80;73.60
49423;BME280;36998;51.974;20.150;2022-12-07T06:49:04;99292.34;;;3.83;73.54
49423;BME280;36998;51.974;20.150;2022-12-07T06:51:30;99275.59;;;3.81;73.81
49423;BME280;36998;51.974;20.150;2022-12-07T06:53:56;99280.50;;;3.86;73.84
49423;BME280;36998;51.974;20.150;2022-12-07T06:56:22;99277.41;;;3.90;73.85
49423;BME280;36998;51.974;20.150;2022-12-07T06:58:48;99268.94;;;3.95;74.11
49423;BME280;36998;51.974;20.150;2022-12-07T07:01:16;99269.94;;;3.94;74.25
49423;BME280;36998;51.974;20.150;2022-12-07T07:03:43;99276.00;;;3.96;73.79
49423;BME280;36998;51.974;20.150;2022-12-07T07:06:10;99289.19;;;3.97;73.94
49423;BME280;36998;51.974;20.150;2022-12-07T07:08:36;99291.75;;;3.99;74.16
49423;BME280;36998;51.974;20.150;2022-12-07T07:11:03;99277.09;;;4.03;74.15
49423;BME280;36998;51.974;20.150;2022-12-07T07:13:28;99280.44;;;4.05;73.85
49423;BME280;36998;51.974;20.150;2022-12-07T07:15:54;99281.84;;;4.09;73.90
49423;BME280;36998;51.974;20.150;2022-12-07T07:18:20;99282.41;;;4.13;74.11
49423;BME280;36998;51.974;20.150;2022-12-07T07:20:45;99276.06;;;4.14;73.94
49423;BME280;36998;51.974;20.150;2022-12-07T07:23:11;99277.44;;;4.18;73.83
49423;BME280;36998;51.974;20.150;2022-12-07T07:25:36;99277.16;;;4.21;74.13
49423;BME280;36998;51.974;20.150;2022-12-07T07:28:02;99285.72;;;4.25;74.03
49423;BME280;36998;51.974;20.150;2022-12-07T07:30:28;99283.56;;;4.28;73.92
49423;BME280;36998;51.974;20.150;2022-12-07T07:32:57;99277.66;;;4.34;73.94
49423;BME280;36998;51.974;20.150;2022-12-07T07:35:23;99282.22;;;4.52;73.50
49423;BME280;36998;51.974;20.150;2022-12-07T07:37:49;99284.53;;;4.37;73.70
49423;BME280;36998;51.974;20.150;2022-12-07T07:40:15;99282.03;;;4.35;73.99
49423;BME280;36998;51.974;20.150;2022-12-07T07:42:40;99293.38;;;4.37;74.20
49423;BME280;36998;51.974;20.150;2022-12-07T07:45:06;99294.22;;;4.38;73.82
49423;BME280;36998;51.974;20.150;2022-12-07T07:47:32;99288.59;;;4.41;73.71
49423;BME280;36998;51.974;20.150;2022-12-07T07:49:58;99301.00;;;4.42;73.64
49423;BME280;36998;51.974;20.150;2022-12-07T07:52:23;99300.56;;;4.37;73.91
49423;BME280;36998;51.974;20.150;2022-12-07T07:54:49;99306.91;;;4.36;73.89
49423;BME280;36998;51.974;20.150;2022-12-07T07:57:16;99302.69;;;4.33;73.92
49423;BME280;36998;51.974;20.150;2022-12-07T07:59:42;99293.13;;;4.31;74.05
49423;BME280;36998;51.974;20.150;2022-12-07T08:02:13;99279.66;;;4.32;74.17
49423;BME280;36998;51.974;20.150;2022-12-07T08:04:39;99308.50;;;4.29;73.57
49423;BME280;36998;51.974;20.150;2022-12-07T08:07:05;99306.09;;;4.35;73.91
49423;BME280;36998;51.974;20.150;2022-12-07T08:09:31;99307.47;;;4.39;73.80
49423;BME280;36998;51.974;20.150;2022-12-07T08:11:57;99312.53;;;4.42;73.41
49423;BME280;36998;51.974;20.150;2022-12-07T08:14:24;99309.84;;;4.42;73.71
49423;BME280;36998;51.974;20.150;2022-12-07T08:16:49;99316.56;;;4.46;73.52
49423;BME280;36998;51.974;20.150;2022-12-07T08:19:15;99311.63;;;4.52;73.73
49423;BME280;36998;51.974;20.150;2022-12-07T08:21:40;99312.19;;;4.55;73.70
49423;BME280;36998;51.974;20.150;2022-12-07T08:24:06;99309.75;;;4.62;73.77
49423;BME280;36998;51.974;20.150;2022-12-07T08:26:32;99323.91;;;4.72;73.38
49423;BME280;36998;51.974;20.150;2022-12-07T08:28:58;99319.41;;;4.73;73.52
49423;BME280;36998;51.974;20.150;2022-12-07T08:31:24;99315.81;;;4.82;73.65
49423;BME280;36998;51.974;20.150;2022-12-07T08:33:50;99320.59;;;4.88;73.57
49423;BME280;36998;51.974;20.150;2022-12-07T08:36:16;99323.50;;;4.95;73.17
49423;BME280;36998;51.974;20.150;2022-12-07T08:38:42;99316.84;;;4.99;73.15
49423;BME280;36998;51.974;20.150;2022-12-07T08:41:08;99335.97;;;5.04;72.92
49423;BME280;36998;51.974;20.150;2022-12-07T08:43:35;99322.44;;;5.05;73.12
49423;BME280;36998;51.974;20.150;2022-12-07T08:46:13;99316.59;;;5.10;73.15
49423;BME280;36998;51.974;20.150;2022-12-07T08:48:44;99314.94;;;5.09;73.20
49423;BME280;36998;51.974;20.150;2022-12-07T08:51:10;99327.06;;;5.03;72.78
49423;BME280;36998;51.974;20.150;2022-12-07T08:53:37;99319.22;;;5.02;72.84
49423;BME280;36998;51.974;20.150;2022-12-07T08:56:04;99309.66;;;4.99;72.95
49423;BME280;36998;51.974;20.150;2022-12-07T08:58:32;99305.84;;;5.02;72.94
49423;BME280;36998;51.974;20.150;2022-12-07T09:00:57;99308.22;;;5.05;72.77
49423;BME280;36998;51.974;20.150;2022-12-07T09:03:23;99310.06;;;5.04;72.63
49423;BME280;36998;51.974;20.150;2022-12-07T09:05:49;99306.06;;;5.08;72.69
49423;BME280;36998;51.974;20.150;2022-12-07T09:08:15;99299.88;;;5.08;72.58
49423;BME280;36998;51.974;20.150;2022-12-07T09:10:41;99302.84;;;5.05;72.76
49423;BME280;36998;51.974;20.150;2022-12-07T09:13:07;99313.16;;;5.00;72.58
49423;BME280;36998;51.974;20.150;2022-12-07T09:15:33;99295.03;;;4.93;72.72
49423;BME280;36998;51.974;20.150;2022-12-07T09:17:58;99311.41;;;4.90;72.84
49423;BME280;36998;51.974;20.150;2022-12-07T09:20:24;99286.78;;;4.87;72.85
49423;BME280;36998;51.974;20.150;2022-12-07T09:22:49;99279.75;;;4.86;72.98
49423;BME280;36998;51.974;20.150;2022-12-07T09:25:15;99286.78;;;4.87;72.89
49423;BME280;36998;51.974;20.150;2022-12-07T09:27:41;99282.13;;;4.89;72.69
49423;BME280;36998;51.974;20.150;2022-12-07T09:30:07;99282.53;;;4.94;73.08
49423;BME280;36998;51.974;20.150;2022-12-07T09:32:32;99278.53;;;4.98;72.84
49423;BME280;36998;51.974;20.150;2022-12-07T09:34:58;99287.09;;;5.02;72.53
49423;BME280;36998;51.974;20.150;2022-12-07T09:37:23;99282.28;;;5.05;72.51
49423;BME280;36998;51.974;20.150;2022-12-07T09:39:49;99271.44;;;5.07;72.76
49423;BME280;36998;51.974;20.150;2022-12-07T09:42:26;99283.34;;;5.12;72.86
49423;BME280;36998;51.974;20.150;2022-12-07T09:44:52;99289.19;;;5.08;72.69
49423;BME280;36998;51.974;20.150;2022-12-07T09:47:18;99281.59;;;5.03;72.46
49423;BME280;36998;51.974;20.150;2022-12-07T09:49:44;99282.44;;;5.04;72.64
49423;BME280;36998;51.974;20.150;2022-12-07T09:52:19;99285.44;;;5.01;72.80
49423;BME280;36998;51.974;20.150;2022-12-07T09:54:49;99283.72;;;5.00;72.53
49423;BME280;36998;51.974;20.150;2022-12-07T09:57:15;99288.25;;;4.99;72.32
49423;BME280;36998;51.974;20.150;2022-12-07T09:59:41;99284.91;;;4.97;72.50
49423;BME280;36998;51.974;20.150;2022-12-07T10:02:40;99293.16;;;5.04;72.32
49423;BME280;36998;51.974;20.150;2022-12-07T10:05:13;99289.78;;;5.02;72.39
49423;BME280;36998;51.974;20.150;2022-12-07T10:07:39;99279.59;;;5.05;72.36
49423;BME280;36998;51.974;20.150;2022-12-07T10:10:23;99277.47;;;5.09;72.20
49423;BME280;36998;51.974;20.150;2022-12-07T10:12:59;99272.28;;;5.07;72.29
49423;BME280;36998;51.974;20.150;2022-12-07T10:15:57;99285.19;;;5.12;72.52
49423;BME280;36998;51.974;20.150;2022-12-07T10:18:40;99268.75;;;5.07;72.17
49423;BME280;36998;51.974;20.150;2022-12-07T10:21:17;99267.00;;;4.98;72.42
49423;BME280;36998;51.974;20.150;2022-12-07T10:29:28;99259.41;;;4.75;72.59
49423;BME280;36998;51.974;20.150;2022-12-07T10:31:57;99265.50;;;4.67;73.00
49423;BME280;36998;51.974;20.150;2022-12-07T10:34:35;99267.75;;;4.72;72.88
49423;BME280;36998;51.974;20.150;2022-12-07T10:37:15;99266.38;;;4.68;72.79
49423;BME280;36998;51.974;20.150;2022-12-07T10:39:55;99261.00;;;4.68;73.11
49423;BME280;36998;51.974;20.150;2022-12-07T10:42:22;99264.97;;;4.64;72.82
49423;BME280;36998;51.974;20.150;2022-12-07T10:44:49;99260.00;;;4.69;73.22
49423;BME280;36998;51.974;20.150;2022-12-07T10:47:33;99267.75;;;4.72;73.18
49423;BME280;36998;51.974;20.150;2022-12-07T10:56:14;99257.91;;;4.90;73.19
49423;BME280;36998;51.974;20.150;2022-12-07T10:59:02;99257.03;;;4.90;73.19
49423;BME280;36998;51.974;20.150;2022-12-07T11:04:33;99250.72;;;4.91;72.99
49423;BME280;36998;51.974;20.150;2022-12-07T11:07:23;99247.97;;;5.01;72.94
49423;BME280;36998;51.974;20.150;2022-12-07T11:10:36;99268.91;;;5.05;73.09
49423;BME280;36998;51.974;20.150;2022-12-07T11:21:28;99239.19;;;4.90;72.94
49423;BME280;36998;51.974;20.150;2022-12-07T11:29:45;99237.59;;;4.70;72.75
49423;BME280;36998;51.974;20.150;2022-12-07T11:37:32;99232.31;;;4.60;72.48
49423;BME280;36998;51.974;20.150;2022-12-07T11:40:24;99221.09;;;4.57;72.38
49423;BME280;36998;51.974;20.150;2022-12-07T11:45:43;99228.56;;;4.53;72.68
49423;BME280;36998;51.974;20.150;2022-12-07T11:48:24;99231.72;;;4.66;72.74
49423;BME280;36998;51.974;20.150;2022-12-07T11:50:53;99218.53;;;4.65;72.53
49423;BME280;36998;51.974;20.150;2022-12-07T11:53:27;99228.91;;;4.68;72.48
49423;BME280;36998;51.974;20.150;2022-12-07T11:56:08;99218.81;;;4.62;72.59
49423;BME280;36998;51.974;20.150;2022-12-07T12:03:50;99230.66;;;4.59;71.92
49423;BME280;36998;51.974;20.150;2022-12-07T12:06:17;99221.50;;;4.62;72.01
49423;BME280;36998;51.974;20.150;2022-12-07T12:17:17;99207.22;;;4.71;71.63
49423;BME280;36998;51.974;20.150;2022-12-07T12:20:21;99195.56;;;4.80;71.86
49423;BME280;36998;51.974;20.150;2022-12-07T12:25:24;99194.06;;;4.96;71.62
49423;BME280;36998;51.974;20.150;2022-12-07T12:27:53;99202.06;;;4.96;70.90
49423;BME280;36998;51.974;20.150;2022-12-07T12:30:38;99193.44;;;5.02;71.27
49423;BME280;36998;51.974;20.150;2022-12-07T12:33:26;99192.00;;;5.07;71.10
49423;BME280;36998;51.974;20.150;2022-12-07T12:46:54;99178.38;;;4.83;70.09
49423;BME280;36998;51.974;20.150;2022-12-07T12:54:24;99184.94;;;4.70;69.39
49423;BME280;36998;51.974;20.150;2022-12-07T12:56:55;99191.47;;;4.68;70.00
49423;BME280;36998;51.974;20.150;2022-12-07T12:59:25;99185.03;;;4.61;69.57
49423;BME280;36998;51.974;20.150;2022-12-07T13:10:42;99175.03;;;4.81;69.76
49423;BME280;36998;51.974;20.150;2022-12-07T13:15:45;99174.56;;;4.85;69.19
49423;BME280;36998;51.974;20.150;2022-12-07T13:23:52;99173.66;;;4.77;68.91
49423;BME280;36998;51.974;20.150;2022-12-07T13:33:45;99173.94;;;4.74;69.17
49423;BME280;36998;51.974;20.150;2022-12-07T13:36:23;99166.22;;;4.70;69.49
49423;BME280;36998;51.974;20.150;2022-12-07T13:38:53;99170.31;;;4.75;69.36
49423;BME280;36998;51.974;20.150;2022-12-07T13:41:22;99173.88;;;4.83;69.47
49423;BME280;36998;51.974;20.150;2022-12-07T13:44:10;99176.03;;;4.98;69.63
49423;BME280;36998;51.974;20.150;2022-12-07T13:47:12;99179.88;;;5.03;69.30
49423;BME280;36998;51.974;20.150;2022-12-07T13:49:53;99179.84;;;4.95;69.67
49423;BME280;36998;51.974;20.150;2022-12-07T13:52:30;99179.13;;;4.93;69.33
49423;BME280;36998;51.974;20.150;2022-12-07T13:57:33;99173.97;;;4.91;69.24
49423;BME280;36998;51.974;20.150;2022-12-07T14:00:14;99174.97;;;4.90;69.24
49423;BME280;36998;51.974;20.150;2022-12-07T14:03:03;99168.75;;;4.90;69.38
49423;BME280;36998;51.974;20.150;2022-12-07T14:05:31;99168.91;;;4.88;69.17
49423;BME280;36998;51.974;20.150;2022-12-07T14:08:03;99165.53;;;4.86;69.49
49423;BME280;36998;51.974;20.150;2022-12-07T14:16:31;99160.56;;;4.91;69.68
49423;BME280;36998;51.974;20.150;2022-12-07T14:18:59;99164.41;;;4.89;69.67
49423;BME280;36998;51.974;20.150;2022-12-07T14:21:30;99162.41;;;4.91;69.45
49423;BME280;36998;51.974;20.150;2022-12-07T14:26:37;99156.22;;;4.90;69.41
49423;BME280;36998;51.974;20.150;2022-12-07T14:31:48;99162.25;;;4.92;69.33
49423;BME280;36998;51.974;20.150;2022-12-07T14:34:14;99160.94;;;4.97;69.37
49423;BME280;36998;51.974;20.150;2022-12-07T14:36:39;99166.47;;;4.95;69.46
49423;BME280;36998;51.974;20.150;2022-12-07T14:39:05;99161.91;;;4.87;69.53
49423;BME280;36998;51.974;20.150;2022-12-07T14:41:30;99161.03;;;4.87;69.31
49423;BME280;36998;51.974;20.150;2022-12-07T14:44:15;99163.88;;;4.85;69.38
49423;BME280;36998;51.974;20.150;2022-12-07T14:46:40;99161.03;;;4.87;69.73
49423;BME280;36998;51.974;20.150;2022-12-07T14:49:06;99160.19;;;4.86;69.68
49423;BME280;36998;51.974;20.150;2022-12-07T14:51:32;99168.91;;;4.88;69.89
49423;BME280;36998;51.974;20.150;2022-12-07T14:53:59;99175.63;;;4.92;69.36
49423;BME280;36998;51.974;20.150;2022-12-07T14:56:25;99169.44;;;4.92;69.83
49423;BME280;36998;51.974;20.150;2022-12-07T14:58:51;99162.78;;;4.96;69.46
49423;BME280;36998;51.974;20.150;2022-12-07T15:01:16;99156.97;;;5.01;69.20
49423;BME280;36998;51.974;20.150;2022-12-07T15:03:42;99151.75;;;4.99;69.45
49423;BME280;36998;51.974;20.150;2022-12-07T15:06:13;99154.22;;;4.92;69.30
49423;BME280;36998;51.974;20.150;2022-12-07T15:08:39;99154.78;;;4.78;69.60
49423;BME280;36998;51.974;20.150;2022-12-07T15:11:05;99143.03;;;4.71;69.93
49423;BME280;36998;51.974;20.150;2022-12-07T15:13:31;99149.13;;;4.63;69.84
49423;BME280;36998;51.974;20.150;2022-12-07T15:16:19;99151.50;;;4.66;70.24